sensor_id;sensor_type;location;lat;lon;timestamp;pressure;altitude;pressure_sealevel;temperature;humidity
40954;BME280;26686;50.130;8.710;2022-07-06T00:04:12;100772.75;;;21.16;41.70
40954;BME280;26686;50.130;8.710;2022-07-06T00:09:14;100770.13;;;21.08;42.35
40954;BME280;26686;50.130;8.710;2022-07-06T00:14:16;100775.88;;;21.05;42.66
40954;BME280;26686;50.130;8.710;2022-07-06T00:19:17;100778.81;;;20.95;43.03
40954;BME280;26686;50.130;8.710;2022-07-06T00:24:18;100785.44;;;20.93;42.96
40954;BME280;26686;50.130;8.710;2022-07-06T00:29:20;100788.16;;;20.93;43.44
40954;BME280;26686;50.130;8.710;2022-07-06T00:34:21;100793.94;;;20.90;43.83
40954;BME280;26686;50.130;8.710;2022-07-06T00:39:23;100787.34;;;20.84;43.86
40954;BME280;26686;50.130;8.710;2022-07-06T00:44:30;100784.16;;;20.80;43.82
40954;BME280;26686;50.130;8.710;2022-07-06T00:49:34;100784.56;;;20.69;44.67
40954;BME280;26686;50.130;8.710;2022-07-06T00:54:54;100783.88;;;20.67;45.27
40954;BME280;26686;50.130;8.710;2022-07-06T00:59:56;100780.47;;;20.65;45.57
40954;BME280;26686;50.130;8.710;2022-07-06T01:04:58;100781.97;;;20.36;46.25
40954;BME280;26686;50.130;8.710;2022-07-06T01:09:59;100788.91;;;20.30;45.92
40954;BME280;26686;50.130;8.710;2022-07-06T01:15:07;100781.31;;;20.26;46.75
40954;BME280;26686;50.130;8.710;2022-07-06T01:20:16;100773.88;;;20.28;46.67
40954;BME280;26686;50.130;8.710;2022-07-06T01:25:18;100787.31;;;20.05;47.74
40954;BME280;26686;50.130;8.710;2022-07-06T01:30:20;100782.94;;;19.87;47.35
40954;BME280;26686;50.130;8.710;2022-07-06T01:35:22;100779.72;;;19.75;48.39
40954;BME280;26686;50.130;8.710;2022-07-06T01:40:25;100783.97;;;19.70;47.75
40954;BME280;26686;50.130;8.710;2022-07-06T01:45:27;100777.72;;;19.77;48.69
40954;BME280;26686;50.130;8.710;2022-07-06T01:50:28;100776.34;;;19.90;48.62
40954;BME280;26686;50.130;8.710;2022-07-06T01:55:29;100779.72;;;19.75;48.45
40954;BME280;26686;50.130;8.710;2022-07-06T02:00:31;100779.88;;;19.90;49.60
40954;BME280;26686;50.130;8.710;2022-07-06T02:05:32;100780.44;;;19.77;48.69
40954;BME280;26686;50.130;8.710;2022-07-06T02:10:34;100781.09;;;19.71;49.50
40954;BME280;26686;50.130;8.710;2022-07-06T02:15:35;100791.56;;;19.83;49.45
40954;BME280;26686;50.130;8.710;2022-07-06T02:20:36;100780.22;;;19.71;49.39
40954;BME280;26686;50.130;8.710;2022-07-06T02:25:38;100791.22;;;19.61;49.57
40954;BME280;26686;50.130;8.710;2022-07-06T02:30:39;100786.31;;;19.65;49.31
40954;BME280;26686;50.130;8.710;2022-07-06T02:35:41;100792.41;;;19.67;49.80
40954;BME280;26686;50.130;8.710;2022-07-06T02:40:44;100785.47;;;19.56;49.72
40954;BME280;26686;50.130;8.710;2022-07-06T02:45:45;100785.81;;;19.53;50.00
40954;BME280;26686;50.130;8.710;2022-07-06T02:50:47;100782.94;;;19.54;50.28
40954;BME280;26686;50.130;8.710;2022-07-06T02:55:49;100794.25;;;19.58;50.44
40954;BME280;26686;50.130;8.710;2022-07-06T03:00:50;100788.69;;;19.35;50.56
40954;BME280;26686;50.130;8.710;2022-07-06T03:05:52;100795.94;;;19.26;50.86
40954;BME280;26686;50.130;8.710;2022-07-06T03:10:53;100807.38;;;19.20;50.98
40954;BME280;26686;50.130;8.710;2022-07-06T03:15:55;100787.50;;;19.13;51.15
40954;BME280;26686;50.130;8.710;2022-07-06T03:20:56;100810.75;;;19.14;50.98
40954;BME280;26686;50.130;8.710;2022-07-06T03:25:58;100817.84;;;19.23;50.09
40954;BME280;26686;50.130;8.710;2022-07-06T03:30:59;100809.38;;;19.01;50.57
40954;BME280;26686;50.130;8.710;2022-07-06T03:36:00;100818.66;;;18.99;50.28
40954;BME280;26686;50.130;8.710;2022-07-06T03:41:02;100825.56;;;19.01;50.67
40954;BME280;26686;50.130;8.710;2022-07-06T03:46:04;100822.66;;;18.86;50.75
40954;BME280;26686;50.130;8.710;2022-07-06T03:51:05;100828.44;;;18.92;50.50
40954;BME280;26686;50.130;8.710;2022-07-06T03:56:07;100838.69;;;18.88;49.75
40954;BME280;26686;50.130;8.710;2022-07-06T04:01:27;100837.28;;;18.41;51.34
40954;BME280;26686;50.130;8.710;2022-07-06T04:06:29;100837.22;;;18.67;50.58
40954;BME280;26686;50.130;8.710;2022-07-06T04:11:31;100842.91;;;18.56;51.12
40954;BME280;26686;50.130;8.710;2022-07-06T04:16:32;100854.31;;;18.84;51.25
40954;BME280;26686;50.130;8.710;2022-07-06T04:21:34;100843.66;;;18.75;51.23
40954;BME280;26686;50.130;8.710;2022-07-06T04:26:35;100855.81;;;18.79;51.30
40954;BME280;26686;50.130;8.710;2022-07-06T04:31:37;100866.88;;;18.67;51.16
40954;BME280;26686;50.130;8.710;2022-07-06T04:36:39;100858.19;;;18.82;50.77
40954;BME280;26686;50.130;8.710;2022-07-06T04:41:41;100863.25;;;18.85;50.96
40954;BME280;26686;50.130;8.710;2022-07-06T04:46:42;100864.56;;;18.81;50.80
40954;BME280;26686;50.130;8.710;2022-07-06T04:51:44;100876.91;;;18.49;52.28
40954;BME280;26686;50.130;8.710;2022-07-06T04:56:45;100872.25;;;18.59;51.71
40954;BME280;26686;50.130;8.710;2022-07-06T05:01:48;100865.72;;;18.35;52.89
40954;BME280;26686;50.130;8.710;2022-07-06T05:06:49;100876.56;;;18.44;52.65
40954;BME280;26686;50.130;8.710;2022-07-06T05:11:51;100881.25;;;18.42;52.88
40954;BME280;26686;50.130;8.710;2022-07-06T05:16:53;100876.69;;;18.16;53.74
40954;BME280;26686;50.130;8.710;2022-07-06T05:21:54;100882.03;;;18.34;53.66
40954;BME280;26686;50.130;8.710;2022-07-06T05:26:56;100881.13;;;18.25;53.61
40954;BME280;26686;50.130;8.710;2022-07-06T05:31:58;100895.13;;;18.55;53.00
40954;BME280;26686;50.130;8.710;2022-07-06T05:36:59;100896.38;;;18.69;52.16
40954;BME280;26686;50.130;8.710;2022-07-06T05:42:01;100886.78;;;18.66;52.79
40954;BME280;26686;50.130;8.710;2022-07-06T05:47:03;100896.63;;;18.84;53.53
40954;BME280;26686;50.130;8.710;2022-07-06T05:52:24;100895.63;;;18.85;51.64
40954;BME280;26686;50.130;8.710;2022-07-06T05:57:25;100896.63;;;18.84;52.18
40954;BME280;26686;50.130;8.710;2022-07-06T06:02:39;100890.00;;;19.04;51.80
40954;BME280;26686;50.130;8.710;2022-07-06T06:07:40;100917.69;;;19.15;50.63
40954;BME280;26686;50.130;8.710;2022-07-06T06:12:42;100914.97;;;19.15;51.40
40954;BME280;26686;50.130;8.710;2022-07-06T06:17:44;100915.53;;;19.27;51.21
40954;BME280;26686;50.130;8.710;2022-07-06T06:22:57;100916.03;;;19.30;51.33
40954;BME280;26686;50.130;8.710;2022-07-06T06:27:59;100902.44;;;19.65;49.99
40954;BME280;26686;50.130;8.710;2022-07-06T06:33:20;100913.75;;;19.68;49.96
40954;BME280;26686;50.130;8.710;2022-07-06T06:38:23;100910.38;;;19.58;50.50
40954;BME280;26686;50.130;8.710;2022-07-06T06:43:29;100902.97;;;19.68;49.91
40954;BME280;26686;50.130;8.710;2022-07-06T06:48:30;100917.19;;;20.03;49.34
40954;BME280;26686;50.130;8.710;2022-07-06T06:53:33;100921.41;;;19.89;48.57
40954;BME280;26686;50.130;8.710;2022-07-06T06:58:40;100907.72;;;20.07;48.96
40954;BME280;26686;50.130;8.710;2022-07-06T07:04:01;100926.72;;;20.63;48.20
40954;BME280;26686;50.130;8.710;2022-07-06T07:09:03;100930.28;;;20.47;48.50
40954;BME280;26686;50.130;8.710;2022-07-06T07:14:04;100923.72;;;20.34;47.94
40954;BME280;26686;50.130;8.710;2022-07-06T07:19:06;100926.22;;;20.52;47.97
40954;BME280;26686;50.130;8.710;2022-07-06T07:24:07;100935.66;;;20.80;47.06
40954;BME280;26686;50.130;8.710;2022-07-06T07:29:10;100939.00;;;20.91;46.54
40954;BME280;26686;50.130;8.710;2022-07-06T07:34:12;100938.75;;;20.69;46.54
40954;BME280;26686;50.130;8.710;2022-07-06T07:39:14;100934.66;;;20.65;46.55
40954;BME280;26686;50.130;8.710;2022-07-06T07:44:16;100929.53;;;20.87;47.21
40954;BME280;26686;50.130;8.710;2022-07-06T07:49:17;100930.72;;;21.32;46.25
40954;BME280;26686;50.130;8.710;2022-07-06T07:54:22;100926.84;;;21.58;44.95
40954;BME280;26686;50.130;8.710;2022-07-06T07:59:23;100929.00;;;21.85;43.53
40954;BME280;26686;50.130;8.710;2022-07-06T08:04:24;100926.16;;;21.24;43.78
40954;BME280;26686;50.130;8.710;2022-07-06T08:09:26;100927.38;;;21.22;43.30
40954;BME280;26686;50.130;8.710;2022-07-06T08:14:27;100928.16;;;20.99;44.82
40954;BME280;26686;50.130;8.710;2022-07-06T08:19:29;100928.22;;;20.82;44.55
40954;BME280;26686;50.130;8.710;2022-07-06T08:24:31;100942.38;;;20.93;45.02
40954;BME280;26686;50.130;8.710;2022-07-06T08:29:33;100940.50;;;21.33;43.60
40954;BME280;26686;50.130;8.710;2022-07-06T08:34:34;100935.88;;;21.42;42.85
40954;BME280;26686;50.130;8.710;2022-07-06T08:39:36;100940.47;;;21.73;42.69
40954;BME280;26686;50.130;8.710;2022-07-06T08:44:37;100939.03;;;21.85;42.22
40954;BME280;26686;50.130;8.710;2022-07-06T08:49:39;100931.31;;;21.97;41.55
40954;BME280;26686;50.130;8.710;2022-07-06T08:54:41;100933.88;;;22.13;41.18
40954;BME280;26686;50.130;8.710;2022-07-06T08:59:43;100927.81;;;22.49;40.86
40954;BME280;26686;50.130;8.710;2022-07-06T09:04:46;100939.84;;;22.32;40.39
40954;BME280;26686;50.130;8.710;2022-07-06T09:09:48;100935.91;;;22.34;40.13
40954;BME280;26686;50.130;8.710;2022-07-06T09:14:50;100930.72;;;22.63;39.98
40954;BME280;26686;50.130;8.710;2022-07-06T09:19:52;100935.41;;;22.69;39.26
40954;BME280;26686;50.130;8.710;2022-07-06T09:25:01;100939.94;;;22.38;39.95
40954;BME280;26686;50.130;8.710;2022-07-06T09:30:03;100933.28;;;22.41;40.81
40954;BME280;26686;50.130;8.710;2022-07-06T09:35:05;100921.63;;;22.55;39.50
40954;BME280;26686;50.130;8.710;2022-07-06T09:40:15;100929.22;;;22.75;39.13
40954;BME280;26686;50.130;8.710;2022-07-06T09:45:21;100929.59;;;22.72;39.97
40954;BME280;26686;50.130;8.710;2022-07-06T09:50:27;100928.44;;;22.51;39.88
40954;BME280;26686;50.130;8.710;2022-07-06T09:55:29;100920.44;;;22.73;39.78
40954;BME280;26686;50.130;8.710;2022-07-06T10:00:31;100934.44;;;22.91;39.18
40954;BME280;26686;50.130;8.710;2022-07-06T10:05:32;100932.50;;;22.70;38.53
40954;BME280;26686;50.130;8.710;2022-07-06T10:10:36;100935.06;;;22.49;38.64
40954;BME280;26686;50.130;8.710;2022-07-06T10:15:39;100933.03;;;22.36;38.03
40954;BME280;26686;50.130;8.710;2022-07-06T10:20:40;100921.44;;;22.72;38.63
40954;BME280;26686;50.130;8.710;2022-07-06T10:25:44;100922.00;;;22.97;36.98
40954;BME280;26686;50.130;8.710;2022-07-06T10:30:48;100921.41;;;23.32;36.70
40954;BME280;26686;50.130;8.710;2022-07-06T10:35:50;100916.97;;;24.10;34.73
40954;BME280;26686;50.130;8.710;2022-07-06T10:41:05;100908.09;;;24.02;33.29
40954;BME280;26686;50.130;8.710;2022-07-06T10:46:17;100902.28;;;23.83;33.04
40954;BME280;26686;50.130;8.710;2022-07-06T10:51:27;100907.88;;;24.53;34.08
40954;BME280;26686;50.130;8.710;2022-07-06T10:56:36;100906.91;;;25.09;33.37
40954;BME280;26686;50.130;8.710;2022-07-06T11:01:40;100899.03;;;24.86;32.89
40954;BME280;26686;50.130;8.710;2022-07-06T11:06:47;100902.66;;;25.55;30.90
40954;BME280;26686;50.130;8.710;2022-07-06T11:11:49;100896.41;;;25.74;31.00
40954;BME280;26686;50.130;8.710;2022-07-06T11:21:54;100904.81;;;25.93;30.56
40954;BME280;26686;50.130;8.710;2022-07-06T11:27:01;100899.09;;;26.48;31.09
40954;BME280;26686;50.130;8.710;2022-07-06T11:32:03;100896.00;;;26.31;29.21
40954;BME280;26686;50.130;8.710;2022-07-06T11:37:10;100892.13;;;26.79;29.44
40954;BME280;26686;50.130;8.710;2022-07-06T11:42:14;100892.13;;;27.31;28.35
40954;BME280;26686;50.130;8.710;2022-07-06T11:47:15;100890.34;;;26.39;28.06
40954;BME280;26686;50.130;8.710;2022-07-06T11:52:24;100884.41;;;26.49;28.21
40954;BME280;26686;50.130;8.710;2022-07-06T11:57:26;100871.75;;;27.27;29.22
40954;BME280;26686;50.130;8.710;2022-07-06T12:02:30;100868.94;;;27.72;25.70
40954;BME280;26686;50.130;8.710;2022-07-06T12:07:32;100860.88;;;27.77;26.70
40954;BME280;26686;50.130;8.710;2022-07-06T12:12:33;100860.13;;;27.38;27.67
40954;BME280;26686;50.130;8.710;2022-07-06T12:17:35;100859.59;;;26.77;27.45
40954;BME280;26686;50.130;8.710;2022-07-06T12:22:37;100863.50;;;26.95;27.00
40954;BME280;26686;50.130;8.710;2022-07-06T12:27:39;100853.00;;;26.20;26.78
40954;BME280;26686;50.130;8.710;2022-07-06T12:32:40;100847.22;;;26.61;27.75
40954;BME280;26686;50.130;8.710;2022-07-06T12:37:54;100857.19;;;26.94;27.23
40954;BME280;26686;50.130;8.710;2022-07-06T12:42:57;100846.31;;;26.88;27.23
40954;BME280;26686;50.130;8.710;2022-07-06T12:48:01;100846.00;;;26.51;27.12
40954;BME280;26686;50.130;8.710;2022-07-06T12:53:04;100843.81;;;26.79;27.75
40954;BME280;26686;50.130;8.710;2022-07-06T12:58:18;100838.56;;;26.85;26.81
40954;BME280;26686;50.130;8.710;2022-07-06T13:03:19;100848.50;;;26.52;27.44
40954;BME280;26686;50.130;8.710;2022-07-06T13:08:21;100833.47;;;25.56;28.30
40954;BME280;26686;50.130;8.710;2022-07-06T13:13:22;100849.09;;;25.14;29.00
40954;BME280;26686;50.130;8.710;2022-07-06T13:18:24;100850.66;;;25.56;29.02
40954;BME280;26686;50.130;8.710;2022-07-06T13:23:26;100842.53;;;25.76;28.24
40954;BME280;26686;50.130;8.710;2022-07-06T13:28:28;100828.88;;;25.63;29.03
40954;BME280;26686;50.130;8.710;2022-07-06T13:33:29;100835.78;;;25.86;28.51
40954;BME280;26686;50.130;8.710;2022-07-06T13:38:31;100834.34;;;26.03;28.56
40954;BME280;26686;50.130;8.710;2022-07-06T13:43:32;100824.28;;;25.70;28.96
40954;BME280;26686;50.130;8.710;2022-07-06T13:48:37;100819.84;;;25.89;28.67
40954;BME280;26686;50.130;8.710;2022-07-06T13:53:39;100811.22;;;25.32;28.96
40954;BME280;26686;50.130;8.710;2022-07-06T13:58:40;100830.69;;;25.22;29.15
40954;BME280;26686;50.130;8.710;2022-07-06T14:03:42;100828.06;;;24.87;29.90
40954;BME280;26686;50.130;8.710;2022-07-06T14:08:43;100813.69;;;25.20;30.04
40954;BME280;26686;50.130;8.710;2022-07-06T14:13:45;100815.69;;;25.60;29.80
40954;BME280;26686;50.130;8.710;2022-07-06T14:18:47;100820.13;;;24.93;30.02
40954;BME280;26686;50.130;8.710;2022-07-06T14:23:49;100812.56;;;24.40;31.01
40954;BME280;26686;50.130;8.710;2022-07-06T14:28:50;100807.88;;;24.62;31.12
40954;BME280;26686;50.130;8.710;2022-07-06T14:33:52;100805.00;;;24.77;30.58
40954;BME280;26686;50.130;8.710;2022-07-06T14:38:54;100795.94;;;24.69;30.95
40954;BME280;26686;50.130;8.710;2022-07-06T14:43:55;100791.34;;;24.63;31.00
40954;BME280;26686;50.130;8.710;2022-07-06T14:48:57;100800.09;;;24.59;32.94
40954;BME280;26686;50.130;8.710;2022-07-06T14:53:58;100800.00;;;24.45;31.74
40954;BME280;26686;50.130;8.710;2022-07-06T14:58:59;100795.44;;;24.52;31.19
40954;BME280;26686;50.130;8.710;2022-07-06T15:04:21;100795.66;;;24.51;30.69
40954;BME280;26686;50.130;8.710;2022-07-06T15:09:23;100790.63;;;24.48;31.07
40954;BME280;26686;50.130;8.710;2022-07-06T15:14:25;100802.44;;;24.27;30.06
40954;BME280;26686;50.130;8.710;2022-07-06T15:19:26;100799.81;;;24.05;30.84
40954;BME280;26686;50.130;8.710;2022-07-06T15:24:28;100798.66;;;23.64;31.23
40954;BME280;26686;50.130;8.710;2022-07-06T15:29:30;100797.28;;;23.54;31.07
40954;BME280;26686;50.130;8.710;2022-07-06T15:34:32;100805.00;;;23.50;31.21
40954;BME280;26686;50.130;8.710;2022-07-06T15:39:33;100789.03;;;23.19;31.48
40954;BME280;26686;50.130;8.710;2022-07-06T15:44:35;100791.75;;;23.04;31.78
40954;BME280;26686;50.130;8.710;2022-07-06T15:49:36;100780.81;;;23.34;31.49
40954;BME280;26686;50.130;8.710;2022-07-06T15:54:38;100784.69;;;23.46;31.28
40954;BME280;26686;50.130;8.710;2022-07-06T15:59:39;100767.91;;;22.99;32.14
40954;BME280;26686;50.130;8.710;2022-07-06T16:04:41;100759.47;;;23.30;32.29
40954;BME280;26686;50.130;8.710;2022-07-06T16:09:42;100760.88;;;23.48;32.32
40954;BME280;26686;50.130;8.710;2022-07-06T16:14:43;100764.25;;;23.50;32.07
40954;BME280;26686;50.130;8.710;2022-07-06T16:19:45;100764.50;;;23.34;32.38
40954;BME280;26686;50.130;8.710;2022-07-06T16:24:54;100758.34;;;23.03;33.21
40954;BME280;26686;50.130;8.710;2022-07-06T16:30:00;100751.97;;;23.11;33.60
40954;BME280;26686;50.130;8.710;2022-07-06T16:35:02;100752.34;;;23.29;33.07
40954;BME280;26686;50.130;8.710;2022-07-06T16:40:04;100753.28;;;23.15;32.91
40954;BME280;26686;50.130;8.710;2022-07-06T16:45:06;100752.44;;;23.00;32.84
40954;BME280;26686;50.130;8.710;2022-07-06T16:50:11;100759.28;;;22.74;33.49
40954;BME280;26686;50.130;8.710;2022-07-06T16:55:14;100758.44;;;22.73;33.89
40954;BME280;26686;50.130;8.710;2022-07-06T17:00:16;100759.88;;;22.54;33.51
40954;BME280;26686;50.130;8.710;2022-07-06T17:05:17;100757.38;;;22.38;33.52
40954;BME280;26686;50.130;8.710;2022-07-06T17:10:19;100753.53;;;22.47;33.92
40954;BME280;26686;50.130;8.710;2022-07-06T17:15:20;100756.03;;;22.64;34.17
40954;BME280;26686;50.130;8.710;2022-07-06T17:20:22;100767.69;;;22.79;33.93
40954;BME280;26686;50.130;8.710;2022-07-06T17:25:24;100755.53;;;22.75;33.73
40954;BME280;26686;50.130;8.710;2022-07-06T17:30:26;100759.13;;;22.60;33.63
40954;BME280;26686;50.130;8.710;2022-07-06T17:35:27;100756.75;;;22.72;33.94
40954;BME280;26686;50.130;8.710;2022-07-06T17:40:30;100750.22;;;22.67;33.40
40954;BME280;26686;50.130;8.710;2022-07-06T17:45:32;100742.97;;;22.52;34.33
40954;BME280;26686;50.130;8.710;2022-07-06T17:50:35;100744.38;;;22.48;34.45
40954;BME280;26686;50.130;8.710;2022-07-06T17:55:37;100744.94;;;22.29;34.33
40954;BME280;26686;50.130;8.710;2022-07-06T18:00:40;100747.47;;;22.00;34.88
40954;BME280;26686;50.130;8.710;2022-07-06T18:05:42;100746.06;;;21.89;35.82
40954;BME280;26686;50.130;8.710;2022-07-06T18:10:47;100753.44;;;21.81;35.42
40954;BME280;26686;50.130;8.710;2022-07-06T18:15:49;100756.69;;;21.76;36.20
40954;BME280;26686;50.130;8.710;2022-07-06T18:20:51;100749.97;;;21.72;35.86
40954;BME280;26686;50.130;8.710;2022-07-06T18:25:55;100744.81;;;21.39;36.82
40954;BME280;26686;50.130;8.710;2022-07-06T18:30:58;100745.88;;;21.38;36.21
40954;BME280;26686;50.130;8.710;2022-07-06T18:35:59;100750.88;;;21.26;37.20
40954;BME280;26686;50.130;8.710;2022-07-06T18:41:01;100763.03;;;21.30;37.37
40954;BME280;26686;50.130;8.710;2022-07-06T18:46:03;100756.16;;;21.19;37.06
40954;BME280;26686;50.130;8.710;2022-07-06T18:51:04;100758.31;;;21.01;37.41
40954;BME280;26686;50.130;8.710;2022-07-06T18:56:07;100746.72;;;20.92;37.43
40954;BME280;26686;50.130;8.710;2022-07-06T19:01:08;100752.53;;;20.81;38.76
40954;BME280;26686;50.130;8.710;2022-07-06T19:06:11;100748.03;;;20.73;37.93
40954;BME280;26686;50.130;8.710;2022-07-06T19:11:13;100744.00;;;20.69;37.97
40954;BME280;26686;50.130;8.710;2022-07-06T19:16:21;100759.69;;;20.74;39.74
40954;BME280;26686;50.130;8.710;2022-07-06T19:21:23;100762.91;;;20.69;39.05
40954;BME280;26686;50.130;8.710;2022-07-06T19:26:25;100761.41;;;20.66;38.68
40954;BME280;26686;50.130;8.710;2022-07-06T19:31:26;100768.44;;;20.76;38.96
40954;BME280;26686;50.130;8.710;2022-07-06T19:36:30;100765.13;;;20.65;39.41
40954;BME280;26686;50.130;8.710;2022-07-06T19:41:31;100778.78;;;20.72;39.19
40954;BME280;26686;50.130;8.710;2022-07-06T19:46:33;100769.00;;;20.63;39.67
40954;BME280;26686;50.130;8.710;2022-07-06T19:51:34;100779.50;;;20.66;39.25
40954;BME280;26686;50.130;8.710;2022-07-06T19:56:36;100786.59;;;20.59;39.06
40954;BME280;26686;50.130;8.710;2022-07-06T20:01:37;100789.31;;;20.51;39.84
40954;BME280;26686;50.130;8.710;2022-07-06T20:06:39;100783.78;;;20.44;39.87
40954;BME280;26686;50.130;8.710;2022-07-06T20:11:41;100788.38;;;20.43;40.42
40954;BME280;26686;50.130;8.710;2022-07-06T20:16:44;100792.91;;;20.43;40.74
40954;BME280;26686;50.130;8.710;2022-07-06T20:21:45;100797.50;;;20.42;40.85
40954;BME280;26686;50.130;8.710;2022-07-06T20:26:47;100798.84;;;20.38;40.72
40954;BME280;26686;50.130;8.710;2022-07-06T20:31:49;100787.56;;;20.26;42.13
40954;BME280;26686;50.130;8.710;2022-07-06T20:36:50;100783.84;;;20.27;40.51
40954;BME280;26686;50.130;8.710;2022-07-06T20:41:52;100778.75;;;20.33;41.25
40954;BME280;26686;50.130;8.710;2022-07-06T20:46:53;100780.28;;;20.35;40.60
40954;BME280;26686;50.130;8.710;2022-07-06T20:51:55;100770.81;;;20.39;40.82
40954;BME280;26686;50.130;8.710;2022-07-06T20:56:57;100778.09;;;20.30;41.37
40954;BME280;26686;50.130;8.710;2022-07-06T21:01:59;100784.69;;;20.28;41.46
40954;BME280;26686;50.130;8.710;2022-07-06T21:07:01;100780.63;;;20.32;41.67
40954;BME280;26686;50.130;8.710;2022-07-06T21:12:02;100772.69;;;20.30;40.73
40954;BME280;26686;50.130;8.710;2022-07-06T21:17:04;100776.09;;;20.24;41.88
40954;BME280;26686;50.130;8.710;2022-07-06T21:22:10;100770.16;;;20.29;41.89
40954;BME280;26686;50.130;8.710;2022-07-06T21:27:11;100776.91;;;20.33;41.66
40954;BME280;26686;50.130;8.710;2022-07-06T21:32:13;100758.88;;;20.25;41.15
40954;BME280;26686;50.130;8.710;2022-07-06T21:37:14;100769.69;;;20.25;41.54
40954;BME280;26686;50.130;8.710;2022-07-06T21:42:16;100754.66;;;20.23;41.45
40954;BME280;26686;50.130;8.710;2022-07-06T21:47:17;100750.94;;;20.24;41.81
40954;BME280;26686;50.130;8.710;2022-07-06T21:52:19;100758.75;;;20.10;42.03
40954;BME280;26686;50.130;8.710;2022-07-06T21:57:21;100761.63;;;20.01;41.13
40954;BME280;26686;50.130;8.710;2022-07-06T22:02:22;100752.84;;;20.07;41.67
40954;BME280;26686;50.130;8.710;2022-07-06T22:07:23;100754.53;;;20.08;42.06
40954;BME280;26686;50.130;8.710;2022-07-06T22:12:25;100754.84;;;20.13;42.03
40954;BME280;26686;50.130;8.710;2022-07-06T22:17:26;100750.44;;;20.20;41.91
40954;BME280;26686;50.130;8.710;2022-07-06T22:22:28;100752.94;;;20.22;42.46
40954;BME280;26686;50.130;8.710;2022-07-06T22:27:29;100761.75;;;20.24;41.56
40954;BME280;26686;50.130;8.710;2022-07-06T22:32:31;100768.16;;;20.14;42.89
40954;BME280;26686;50.130;8.710;2022-07-06T22:37:32;100755.19;;;20.18;42.78
40954;BME280;26686;50.130;8.710;2022-07-06T22:42:34;100746.72;;;20.21;42.46
40954;BME280;26686;50.130;8.710;2022-07-06T22:47:35;100741.66;;;20.18;42.49
40954;BME280;26686;50.130;8.710;2022-07-06T22:52:37;100742.66;;;20.25;42.21
40954;BME280;26686;50.130;8.710;2022-07-06T22:57:38;100741.44;;;20.28;42.04
40954;BME280;26686;50.130;8.710;2022-07-06T23:02:40;100730.63;;;20.28;42.68
40954;BME280;26686;50.130;8.710;2022-07-06T23:07:41;100728.59;;;20.30;41.85
40954;BME280;26686;50.130;8.710;2022-07-06T23:12:42;100731.97;;;20.32;42.46
40954;BME280;26686;50.130;8.710;2022-07-06T23:17:45;100726.91;;;20.29;41.76
40954;BME280;26686;50.130;8.710;2022-07-06T23:22:47;100719.47;;;20.31;41.92
40954;BME280;26686;50.130;8.710;2022-07-06T23:27:49;100727.56;;;20.31;41.60
40954;BME280;26686;50.130;8.710;2022-07-06T23:32:51;100706.00;;;20.23;42.01
40954;BME280;26686;50.130;8.710;2022-07-06T23:37:53;100703.28;;;20.23;42.13
40954;BME280;26686;50.130;8.710;2022-07-06T23:42:54;100698.91;;;20.22;42.91
40954;BME280;26686;50.130;8.710;2022-07-06T23:47:56;100699.94;;;20.21;41.98
40954;BME280;26686;50.130;8.710;2022-07-06T23:52:57;100686.63;;;20.11;41.89
40954;BME280;26686;50.130;8.710;2022-07-06T23:57:59;100685.44;;;20.13;42.18
